MET'MAP v2.0
soon released !

Expected late october,
this new version will be
more efficient, smarter,
and hosted on a brand new
server x3 powerfull...
...and still free !


Not compatible ?
Try the mobile version !

LOG IN : | Subscribe | Disclaimer | Who is Orbifly ? |
ICAO code :

TAF - LIBG Grottaglie Arpt. Taranto - 13 Dec 2019 09:52 UTC - Data Source NOAA   


- Airport Elevation : 215 ft
- IATA code : TAR
- No reported NOTAMs.


LIBG - Grottaglie Arpt. Taranto

Latest METAR recorded : 2015/08/11 07:50 LIBG 110750Z 14005KT 080V190 9999 FEW020 30/22 Q1010
TAF TAF LIBG
Valid from the 13 at 09:00 until the 13 at 18:00 UTC


130800Z 1309/1318 22015KT 9999 SCT030
BECMG 1315/1318 20018G30KT
TEMPO 1315/1318 4000 SHRA

Source NOAA


MET'MAP, your aeronautical weather chart ! - Copyright ORBIFLY December 2007

Programming & Development : Alexandra Zaïnal
Co-Developer : Marc-Olivier Méhu
Technical & hardware support : Manuel Goepfert
Concept & Financing : Baudouin d'Aumeries